createdAt,value
2019-03-08T00:01:09.435Z,86.67
2019-03-08T00:02:19.162Z,86.67
2019-03-08T00:03:29.150Z,86.67
2019-03-08T00:04:39.146Z,86.67
2019-03-08T00:05:48.918Z,86.57
2019-03-08T00:06:58.413Z,86.57
2019-03-08T00:08:08.416Z,86.76
2019-03-08T00:09:18.385Z,86.57
2019-03-08T00:10:28.142Z,86.38
2019-03-08T00:11:38.160Z,86.76
2019-03-08T00:12:48.133Z,86.76
2019-03-08T00:13:58.122Z,86.47
2019-03-08T00:15:08.117Z,86.76
2019-03-08T00:16:18.124Z,87.14
2019-03-08T00:17:28.114Z,86.57
2019-03-08T00:18:38.082Z,86.47
2019-03-08T00:19:47.881Z,86.76
2019-03-08T00:20:57.858Z,86.67
2019-03-08T00:22:08.165Z,86.86
2019-03-08T00:23:17.898Z,85.81
2019-03-08T00:24:28.100Z,86.19
2019-03-08T00:25:38.575Z,86.47
2019-03-08T00:26:49.164Z,86.29
2019-03-08T00:28:00.626Z,86.29
2019-03-08T00:29:10.746Z,86.19
2019-03-08T00:30:20.875Z,86.38
2019-03-08T00:31:30.915Z,86.67
2019-03-08T00:32:40.879Z,87.43
2019-03-08T00:33:50.875Z,86.57
2019-03-08T00:35:00.663Z,86.67
2019-03-08T00:36:10.821Z,86.86
2019-03-08T00:37:20.533Z,86.76
2019-03-08T00:38:30.528Z,87.57
2019-03-08T00:39:40.037Z,87.24
2019-03-08T00:40:50.057Z,86.91
2019-03-08T00:42:00.041Z,86.76
2019-03-08T00:43:10.014Z,86.47
2019-03-08T00:44:19.741Z,86.76
2019-03-08T00:45:29.741Z,87.52
2019-03-08T00:46:39.715Z,86.57
2019-03-08T00:47:49.696Z,86.47
2019-03-08T00:48:59.691Z,87.43
2019-03-08T00:50:11.094Z,86.86
2019-03-08T00:51:21.062Z,87.43
2019-03-08T00:52:32.959Z,87.34
2019-03-08T00:53:43.046Z,88
2019-03-08T00:54:52.776Z,87.52
2019-03-08T00:56:02.811Z,88.09
2019-03-08T00:57:12.314Z,87.9
2019-03-08T00:58:22.077Z,87.81
2019-03-08T00:59:32.200Z,88.28
2019-03-08T01:00:41.948Z,88.19
2019-03-08T01:01:51.426Z,87.52
2019-03-08T01:03:01.506Z,88.09
2019-03-08T01:04:11.600Z,87.52
2019-03-08T01:05:21.570Z,87.81
2019-03-08T01:06:32.856Z,87.52
2019-03-08T01:07:42.593Z,88.19
2019-03-08T01:08:52.332Z,88.28
2019-03-08T01:10:01.561Z,87.81
2019-03-08T01:11:11.555Z,88.28
2019-03-08T01:12:21.533Z,88.09
2019-03-08T01:13:31.512Z,87.9
2019-03-08T01:14:41.511Z,87.52
2019-03-08T01:15:51.730Z,87.9
2019-03-08T01:17:01.982Z,88.28
2019-03-08T01:18:12.035Z,87.81
2019-03-08T01:19:22.402Z,88
2019-03-08T01:20:32.778Z,88
2019-03-08T01:21:43.270Z,88
2019-03-08T01:22:53.790Z,87.71
2019-03-08T01:24:03.798Z,87.9
2019-03-08T01:25:13.728Z,87.71
2019-03-08T01:26:24.439Z,87.9
2019-03-08T01:27:34.181Z,88.38
2019-03-08T01:28:44.179Z,88
2019-03-08T01:29:53.896Z,88.19
2019-03-08T01:31:03.388Z,88
2019-03-08T01:32:12.628Z,88
2019-03-08T01:33:22.134Z,88
2019-03-08T01:34:31.884Z,88
2019-03-08T01:35:41.877Z,88.28
2019-03-08T01:36:51.617Z,87.9
2019-03-08T01:38:01.342Z,87.62
2019-03-08T01:39:10.846Z,88
2019-03-08T01:40:20.580Z,87.81
2019-03-08T01:41:31.327Z,87.52
2019-03-08T01:42:43.295Z,87.71
2019-03-08T01:43:53.111Z,87.71
2019-03-08T01:45:03.792Z,87.71
2019-03-08T01:46:13.857Z,87.71
2019-03-08T01:47:23.847Z,88
2019-03-08T01:48:33.818Z,87.62
2019-03-08T01:49:43.798Z,87.71
2019-03-08T01:50:53.531Z,87.71
2019-03-08T01:52:03.026Z,87.71
2019-03-08T01:53:13.015Z,87.52
2019-03-08T01:54:22.762Z,87.62
2019-03-08T01:55:32.763Z,87.24
2019-03-08T01:56:42.949Z,87.71
2019-03-08T01:57:52.735Z,87.9
2019-03-08T01:59:02.730Z,87.71
2019-03-08T02:00:13.225Z,87.52
2019-03-08T02:01:22.471Z,87.81
2019-03-08T02:02:32.455Z,87.71
2019-03-08T02:03:42.469Z,87.43
2019-03-08T02:04:52.435Z,87.62
2019-03-08T02:06:02.421Z,87.62
2019-03-08T02:07:12.407Z,87.81
2019-03-08T02:08:22.239Z,87.9
2019-03-08T02:09:32.245Z,87.52
2019-03-08T02:10:42.464Z,86.86
2019-03-08T02:11:52.905Z,87.14
2019-03-08T02:13:03.085Z,87.24
2019-03-08T02:14:13.755Z,87.9
2019-03-08T02:15:24.315Z,87.14
2019-03-08T02:16:34.284Z,87.05
2019-03-08T02:17:43.837Z,86.67
2019-03-08T02:18:53.645Z,86.67
2019-03-08T02:20:03.626Z,86.38
2019-03-08T02:21:13.611Z,87.14
2019-03-08T02:22:23.698Z,86.86
2019-03-08T02:23:33.721Z,86.86
2019-03-08T02:24:43.703Z,87.05
2019-03-08T02:25:53.449Z,86.82
2019-03-08T02:27:03.446Z,86.86
2019-03-08T02:28:13.180Z,87.34
2019-03-08T02:29:23.200Z,86.67
2019-03-08T02:30:33.201Z,86.57
2019-03-08T02:31:43.199Z,86.38
2019-03-08T02:32:52.946Z,86.19
2019-03-08T02:34:02.923Z,85.81
2019-03-08T02:35:12.673Z,85.91
2019-03-08T02:36:22.677Z,85.62
2019-03-08T02:37:32.676Z,85.81
2019-03-08T02:38:42.161Z,86
2019-03-08T02:39:52.133Z,86.19
2019-03-08T02:41:01.855Z,86.1
2019-03-08T02:42:11.581Z,85.62
2019-03-08T02:43:21.567Z,85.62
2019-03-08T02:44:31.307Z,85.43
2019-03-08T02:45:41.297Z,85.43
2019-03-08T02:46:51.051Z,86.1
2019-03-08T02:48:00.795Z,85.53
2019-03-08T02:49:10.803Z,85.43
2019-03-08T02:50:20.301Z,85.15
2019-03-08T02:51:30.284Z,84.95
2019-03-08T02:52:40.079Z,84.95
2019-03-08T02:53:49.819Z,84.67
2019-03-08T02:54:59.802Z,84.86
2019-03-08T02:56:09.043Z,85.05
2019-03-08T02:57:18.772Z,84.67
2019-03-08T02:58:28.516Z,84.58
2019-03-08T02:59:38.509Z,85.05
2019-03-08T03:00:48.492Z,84.95
2019-03-08T03:01:58.484Z,84.67
2019-03-08T03:03:08.470Z,84.86
2019-03-08T03:04:18.493Z,84.1
2019-03-08T03:05:28.481Z,84.48
2019-03-08T03:06:39.772Z,84.39
2019-03-08T03:07:50.112Z,83.72
2019-03-08T03:09:00.660Z,83.62
2019-03-08T03:10:11.054Z,83.53
2019-03-08T03:11:21.326Z,83.44
2019-03-08T03:12:31.372Z,83.72
2019-03-08T03:13:40.892Z,83.53
2019-03-08T03:14:50.865Z,83.53
2019-03-08T03:16:00.088Z,83.06
2019-03-08T03:17:10.074Z,83.34
2019-03-08T03:18:19.558Z,82.87
2019-03-08T03:19:29.525Z,83.34
2019-03-08T03:20:39.019Z,83.34
2019-03-08T03:21:49.040Z,83.34
2019-03-08T03:22:59.016Z,83.15
2019-03-08T03:24:09.000Z,83.62
2019-03-08T03:25:18.989Z,83.62
2019-03-08T03:26:28.710Z,84.1
2019-03-08T03:27:38.694Z,83.44
2019-03-08T03:28:48.412Z,83.53
2019-03-08T03:29:58.419Z,83.44
2019-03-08T03:31:08.433Z,83.62
2019-03-08T03:32:18.189Z,83.62
2019-03-08T03:33:28.197Z,84.01
2019-03-08T03:34:38.181Z,83.72
2019-03-08T03:35:48.190Z,84.2
2019-03-08T03:36:57.928Z,83.53
2019-03-08T03:38:07.656Z,83.06
2019-03-08T03:39:17.396Z,83.34
2019-03-08T03:40:27.389Z,82.87
2019-03-08T03:41:37.158Z,82.87
2019-03-08T03:42:46.908Z,82.77
2019-03-08T03:43:56.630Z,82.87
2019-03-08T03:45:06.626Z,82.87
2019-03-08T03:46:16.612Z,82.77
2019-03-08T03:47:26.601Z,82.39
2019-03-08T03:48:36.587Z,81.82
2019-03-08T03:49:46.304Z,81.82
2019-03-08T03:50:56.318Z,82.29
2019-03-08T03:52:06.066Z,82.2
2019-03-08T03:53:16.035Z,81.73
2019-03-08T03:54:25.262Z,81.58
2019-03-08T03:55:34.988Z,81.16
2019-03-08T03:56:44.732Z,81.06
2019-03-08T03:57:56.469Z,81.25
2019-03-08T03:59:06.439Z,80.21
2019-03-08T04:00:16.190Z,79.86
2019-03-08T04:01:26.184Z,80.15
2019-03-08T04:02:36.357Z,79.2
2019-03-08T04:03:46.695Z,79.58
2019-03-08T04:04:57.111Z,79.49
2019-03-08T04:06:07.077Z,79.11
2019-03-08T04:07:17.703Z,79.01
2019-03-08T04:08:28.104Z,79.49
2019-03-08T04:09:38.438Z,79.58
2019-03-08T04:10:48.592Z,79.2
2019-03-08T04:11:58.352Z,79.39
2019-03-08T04:13:08.328Z,79.01
2019-03-08T04:14:18.309Z,79.2
2019-03-08T04:15:27.563Z,78.82
2019-03-08T04:16:37.559Z,78.72
2019-03-08T04:17:47.556Z,79.3
2019-03-08T04:18:57.587Z,79.2
2019-03-08T04:20:07.565Z,79.68
2019-03-08T04:21:17.552Z,79.01
2019-03-08T04:22:27.264Z,78.72
2019-03-08T04:23:36.765Z,78.53
2019-03-08T04:24:46.748Z,78.72
2019-03-08T04:25:56.230Z,78.53
2019-03-08T04:27:06.236Z,78.16
2019-03-08T04:28:15.982Z,78.06
2019-03-08T04:29:25.980Z,78.25
2019-03-08T04:30:35.957Z,78.25
2019-03-08T04:31:45.162Z,78.25
2019-03-08T04:32:55.146Z,78.25
2019-03-08T04:34:06.513Z,77.68
2019-03-08T04:35:16.252Z,77.2
2019-03-08T04:36:25.990Z,77.77
2019-03-08T04:37:37.962Z,77.58
2019-03-08T04:38:47.698Z,77.2
2019-03-08T04:39:57.178Z,77.01
2019-03-08T04:41:07.196Z,77.2
2019-03-08T04:42:17.178Z,77.11
2019-03-08T04:43:27.153Z,76.92
2019-03-08T04:44:37.156Z,76.63
2019-03-08T04:45:47.140Z,76.73
2019-03-08T04:46:56.870Z,77.01
2019-03-08T04:48:06.102Z,76.73
2019-03-08T04:49:16.070Z,76.82
2019-03-08T04:50:26.046Z,76.73
2019-03-08T04:51:35.780Z,77.01
2019-03-08T04:52:45.771Z,77.39
2019-03-08T04:53:55.739Z,77.3
2019-03-08T04:55:05.478Z,77.77
2019-03-08T04:56:15.206Z,77.3
2019-03-08T04:57:24.687Z,77.58
2019-03-08T04:58:34.419Z,77.11
2019-03-08T04:59:44.409Z,76.82
2019-03-08T05:00:54.648Z,76.73
2019-03-08T05:02:04.608Z,76.82
2019-03-08T05:03:14.635Z,76.54
2019-03-08T05:04:24.727Z,76.82
2019-03-08T05:05:35.234Z,76.54
2019-03-08T05:06:45.914Z,76.25
2019-03-08T05:07:56.245Z,76.44
2019-03-08T05:09:06.319Z,76.63
2019-03-08T05:10:16.225Z,76.35
2019-03-08T05:11:26.232Z,76.82
2019-03-08T05:12:35.976Z,76.73
2019-03-08T05:13:45.993Z,76.73
2019-03-08T05:14:55.986Z,76.63
2019-03-08T05:16:05.720Z,76.92
2019-03-08T05:17:15.458Z,76.44
2019-03-08T05:18:25.442Z,76.54
2019-03-08T05:19:35.949Z,76.25
2019-03-08T05:20:45.946Z,76.25
2019-03-08T05:21:55.464Z,76.44
2019-03-08T05:23:05.187Z,76.25
2019-03-08T05:24:15.174Z,76.44
2019-03-08T05:25:25.197Z,76.25
2019-03-08T05:26:35.185Z,76.16
2019-03-08T05:27:44.420Z,76.25
2019-03-08T05:28:54.194Z,76.25
2019-03-08T05:30:03.944Z,76.63
2019-03-08T05:31:14.126Z,76.44
2019-03-08T05:32:24.110Z,76.06
2019-03-08T05:33:34.105Z,76.54
2019-03-08T05:34:43.596Z,76.35
2019-03-08T05:35:53.334Z,76.44
2019-03-08T05:37:02.794Z,76.06
2019-03-08T05:38:12.560Z,76.44
2019-03-08T05:39:22.535Z,76.29
2019-03-08T05:40:32.533Z,76.35
2019-03-08T05:41:42.531Z,76.16
2019-03-08T05:42:52.258Z,76.16
2019-03-08T05:44:01.743Z,76.16
2019-03-08T05:45:11.508Z,75.96
2019-03-08T05:46:21.249Z,76.1
2019-03-08T05:47:31.242Z,76.29
2019-03-08T05:48:41.229Z,75.81
2019-03-08T05:49:51.221Z,75.91
2019-03-08T05:51:01.207Z,75.91
2019-03-08T05:52:10.700Z,76.01
2019-03-08T05:53:20.445Z,76.01
2019-03-08T05:54:30.441Z,76.1
2019-03-08T05:55:40.432Z,76.01
2019-03-08T05:56:50.422Z,75.91
2019-03-08T05:58:00.071Z,76.1
2019-03-08T05:59:10.084Z,76.1
2019-03-08T06:00:20.071Z,76.01
2019-03-08T06:01:40.815Z,76.29
2019-03-08T06:02:51.514Z,75.81
2019-03-08T06:04:01.683Z,76.2
2019-03-08T06:05:12.066Z,76.2
2019-03-08T06:06:22.212Z,75.91
2019-03-08T06:07:33.777Z,75.91
2019-03-08T06:08:43.512Z,76.1
2019-03-08T06:09:53.503Z,75.91
2019-03-08T06:11:03.493Z,76.2
2019-03-08T06:12:13.475Z,76.29
2019-03-08T06:13:23.476Z,76.39
2019-03-08T06:14:33.470Z,76.29
2019-03-08T06:15:43.192Z,76.2
2019-03-08T06:16:52.925Z,75.91
2019-03-08T06:18:02.920Z,75.81
2019-03-08T06:19:12.921Z,76.01
2019-03-08T06:20:22.899Z,76.1
2019-03-08T06:21:32.916Z,76.1
2019-03-08T06:22:42.906Z,76.1
2019-03-08T06:23:52.662Z,75.91
2019-03-08T06:25:02.708Z,76.01
2019-03-08T06:26:12.725Z,75.91
2019-03-08T06:27:22.466Z,76.2
2019-03-08T06:28:32.594Z,76.01
2019-03-08T06:29:42.589Z,76.1
2019-03-08T06:30:52.551Z,76.48
2019-03-08T06:32:02.561Z,76.1
2019-03-08T06:33:12.303Z,76.39
2019-03-08T06:34:22.062Z,76.2
2019-03-08T06:35:32.043Z,76.1
2019-03-08T06:36:41.548Z,76.1
2019-03-08T06:37:51.043Z,76.2
2019-03-08T06:39:01.035Z,76.29
2019-03-08T06:40:11.027Z,76.2
2019-03-08T06:41:20.753Z,76.1
2019-03-08T06:42:30.508Z,76.29
2019-03-08T06:43:40.479Z,76.96
2019-03-08T06:44:50.476Z,76.39
2019-03-08T06:46:00.461Z,76.67
2019-03-08T06:47:09.960Z,76.76
2019-03-08T06:48:19.696Z,77.05
2019-03-08T06:49:29.669Z,76.67
2019-03-08T06:50:39.675Z,76.48
2019-03-08T06:51:49.654Z,76.48
2019-03-08T06:52:59.643Z,76.67
2019-03-08T06:54:09.167Z,76.39
2019-03-08T06:55:18.921Z,76.57
2019-03-08T06:56:28.167Z,76.96
2019-03-08T06:57:37.933Z,76.76
2019-03-08T06:58:47.967Z,77.24
2019-03-08T06:59:57.979Z,76.96
2019-03-08T07:01:07.461Z,77.24
2019-03-08T07:02:17.197Z,77.43
2019-03-08T07:03:26.948Z,77.34
2019-03-08T07:04:36.175Z,77.43
2019-03-08T07:05:46.129Z,77.81
2019-03-08T07:06:56.077Z,77.81
2019-03-08T07:08:06.503Z,77.72
2019-03-08T07:09:16.873Z,78.57
2019-03-08T07:10:27.606Z,79.05
2019-03-08T07:11:38.053Z,79.05
2019-03-08T07:12:48.565Z,78.77
2019-03-08T07:14:07.767Z,78.77
2019-03-08T07:15:17.777Z,79.05
2019-03-08T07:16:27.766Z,78.67
2019-03-08T07:17:37.267Z,78.19
2019-03-08T07:18:47.265Z,78.29
2019-03-08T07:19:56.999Z,77.53
2019-03-08T07:21:06.750Z,78.38
2019-03-08T07:22:16.750Z,77.81
2019-03-08T07:23:30.575Z,77.81
2019-03-08T07:24:40.547Z,77.81
2019-03-08T07:25:54.879Z,77.81
2019-03-08T07:27:04.881Z,77.81
2019-03-08T07:28:14.880Z,77.72
2019-03-08T07:29:24.873Z,77.91
2019-03-08T07:30:34.847Z,77.62
2019-03-08T07:31:44.850Z,77.62
2019-03-08T07:32:54.327Z,77.43
2019-03-08T07:34:04.320Z,77.62
2019-03-08T07:35:15.623Z,77.62
2019-03-08T07:36:27.020Z,77.62
2019-03-08T07:37:36.777Z,77.72
2019-03-08T07:38:47.929Z,77.81
2019-03-08T07:39:57.674Z,78.96
2019-03-08T07:41:07.419Z,79.43
2019-03-08T07:42:17.165Z,79.43
2019-03-08T07:43:26.949Z,79.62
2019-03-08T07:44:36.951Z,79.24
2019-03-08T07:45:46.939Z,79.14
2019-03-08T07:46:56.927Z,78.77
2019-03-08T07:48:06.925Z,78.38
2019-03-08T07:49:17.135Z,78.19
2019-03-08T07:50:28.100Z,78.19
2019-03-08T07:51:38.707Z,78.1
2019-03-08T07:52:49.013Z,78.38
2019-03-08T07:53:59.454Z,78.19
2019-03-08T07:55:09.968Z,77.62
2019-03-08T07:56:20.270Z,78.1
2019-03-08T07:57:29.783Z,78
2019-03-08T07:58:39.787Z,78
2019-03-08T07:59:56.158Z,77.72
2019-03-08T08:01:05.941Z,77.81
2019-03-08T08:02:15.947Z,77.81
2019-03-08T08:03:25.963Z,77.81
2019-03-08T08:04:35.707Z,77.72
2019-03-08T08:05:45.709Z,77.85
2019-03-08T08:07:04.804Z,77.81
2019-03-08T08:08:14.325Z,77.85
2019-03-08T08:09:24.336Z,77.34
2019-03-08T08:10:34.071Z,77.85
2019-03-08T08:11:43.822Z,77.66
2019-03-08T08:12:53.809Z,77.85
2019-03-08T08:14:03.807Z,77.81
2019-03-08T08:15:13.801Z,77.34
2019-03-08T08:16:23.559Z,77.56
2019-03-08T08:17:33.546Z,77.56
2019-03-08T08:18:43.551Z,77.66
2019-03-08T08:19:53.325Z,77.28
2019-03-08T08:21:03.737Z,77.19
2019-03-08T08:22:14.528Z,77.37
2019-03-08T08:23:33.806Z,77.37
2019-03-08T08:24:45.714Z,77.85
2019-03-08T08:25:56.295Z,77.56
2019-03-08T08:27:07.128Z,77.56
2019-03-08T08:28:16.825Z,77.28
2019-03-08T08:29:34.628Z,77.47
2019-03-08T08:30:44.913Z,77.85
2019-03-08T08:31:53.903Z,77.56
2019-03-08T08:33:03.935Z,77.85
2019-03-08T08:34:13.928Z,77.56
2019-03-08T08:35:24.893Z,77.85
2019-03-08T08:36:34.883Z,78.14
2019-03-08T08:37:44.910Z,78.71
2019-03-08T08:38:54.889Z,78.99
2019-03-08T08:40:04.883Z,79.05
2019-03-08T08:41:14.893Z,79.09
2019-03-08T08:42:24.861Z,78.96
2019-03-08T08:43:34.846Z,79.33
2019-03-08T08:44:44.611Z,79.09
2019-03-08T08:45:56.059Z,79.62
2019-03-08T08:47:05.561Z,79.14
2019-03-08T08:48:17.478Z,79.47
2019-03-08T08:49:27.489Z,79.28
2019-03-08T08:50:38.168Z,79.66
2019-03-08T08:51:48.222Z,79.57
2019-03-08T08:52:57.984Z,79.91
2019-03-08T08:54:07.710Z,79.62
2019-03-08T08:55:17.687Z,79.75
2019-03-08T08:56:27.697Z,79.81
2019-03-08T08:57:37.664Z,79.81
2019-03-08T08:58:47.399Z,79.62
2019-03-08T08:59:59.492Z,79.19
2019-03-08T09:01:09.520Z,78.96
2019-03-08T09:02:19.582Z,79.14
2019-03-08T09:03:29.898Z,79.81
2019-03-08T09:04:40.158Z,79.72
2019-03-08T09:05:50.123Z,80
2019-03-08T09:07:01.673Z,79.57
2019-03-08T09:08:12.518Z,79.62
2019-03-08T09:09:22.679Z,80.57
2019-03-08T09:10:33.127Z,80.29
2019-03-08T09:11:52.645Z,80.13
2019-03-08T09:13:02.996Z,80.13
2019-03-08T09:14:12.987Z,80.52
2019-03-08T09:15:22.726Z,81.9
2019-03-08T09:16:32.492Z,83.14
2019-03-08T09:17:42.234Z,82.95
2019-03-08T09:18:52.230Z,83.62
2019-03-08T09:20:01.824Z,83.62
2019-03-08T09:21:11.842Z,85.04
2019-03-08T09:22:21.578Z,84.66
2019-03-08T09:23:31.557Z,84.09
2019-03-08T09:24:41.564Z,83.52
2019-03-08T09:25:51.290Z,83.04
2019-03-08T09:27:01.058Z,82.86
2019-03-08T09:28:11.036Z,83.62
2019-03-08T09:29:21.038Z,84.47
2019-03-08T09:30:30.793Z,86.57
2019-03-08T09:31:40.792Z,88.94
2019-03-08T09:32:58.839Z,88.85
2019-03-08T09:34:09.298Z,88.94
2019-03-08T09:35:19.293Z,88.46
2019-03-08T09:36:29.064Z,88.09
2019-03-08T09:37:38.817Z,88.37
2019-03-08T09:38:48.566Z,87.99
2019-03-08T09:39:58.326Z,88.94
2019-03-08T09:41:08.053Z,88.66
2019-03-08T09:42:18.058Z,88.46
2019-03-08T09:43:28.064Z,88.37
2019-03-08T09:44:38.073Z,87.23
2019-03-08T09:45:48.408Z,87.23
2019-03-08T09:46:58.446Z,86.57
2019-03-08T09:48:08.815Z,86.38
2019-03-08T09:49:19.197Z,85.99
2019-03-08T09:50:29.815Z,86.28
2019-03-08T09:51:40.352Z,86.47
2019-03-08T09:52:49.955Z,85.9
2019-03-08T09:54:00.088Z,86.47
2019-03-08T09:55:09.844Z,86.28
2019-03-08T09:56:19.620Z,85.9
2019-03-08T09:57:29.602Z,86.28
2019-03-08T09:58:39.328Z,86.47
2019-03-08T09:59:48.811Z,87.04
2019-03-08T10:00:58.802Z,86.94
2019-03-08T10:02:08.558Z,87.8
2019-03-08T10:03:18.549Z,89.14
2019-03-08T10:04:28.292Z,89.8
2019-03-08T10:05:38.293Z,89.23
2019-03-08T10:06:48.328Z,89.23
2019-03-08T10:07:58.332Z,89.42
2019-03-08T10:09:08.323Z,89.42
2019-03-08T10:10:18.321Z,89.61
2019-03-08T10:11:28.318Z,89.32
2019-03-08T10:12:38.080Z,88.75
2019-03-08T10:13:47.569Z,88.56
2019-03-08T10:14:57.586Z,88.46
2019-03-08T10:16:07.331Z,88.18
2019-03-08T10:17:17.314Z,88.75
2019-03-08T10:18:27.063Z,88.37
2019-03-08T10:19:36.797Z,88.09
2019-03-08T10:20:46.767Z,88.09
2019-03-08T10:21:56.540Z,88.28
2019-03-08T10:23:06.523Z,88.28
2019-03-08T10:24:25.159Z,88.6
2019-03-08T10:25:34.905Z,88.6
2019-03-08T10:26:44.410Z,89.08
2019-03-08T10:27:54.402Z,90.18
2019-03-08T10:29:04.393Z,94.37
2019-03-08T10:30:14.363Z,96.26
2019-03-08T10:31:24.342Z,99.31
2019-03-08T10:32:39.924Z,99.79
2019-03-08T10:33:50.118Z,99.41
2019-03-08T10:35:00.481Z,99.99
2019-03-08T10:36:11.206Z,99.93
2019-03-08T10:37:21.669Z,99.99
2019-03-08T10:38:31.566Z,99.84
2019-03-08T10:39:41.704Z,99.99
2019-03-08T10:40:51.794Z,99.99
2019-03-08T10:42:01.788Z,99.36
2019-03-08T10:43:11.767Z,98.27
2019-03-08T10:44:21.752Z,95.89
2019-03-08T10:45:31.744Z,95.22
2019-03-08T10:46:41.744Z,93.65
2019-03-08T10:47:58.425Z,92.32
2019-03-08T10:49:08.474Z,92.41
2019-03-08T10:50:18.453Z,91.75
2019-03-08T10:51:28.469Z,90.61
2019-03-08T10:52:38.485Z,89.03
2019-03-08T10:53:48.474Z,88.93
2019-03-08T10:55:05.890Z,87.32
2019-03-08T10:56:15.654Z,85.84
2019-03-08T10:57:25.406Z,85.27
2019-03-08T10:58:35.442Z,84.69
2019-03-08T10:59:45.451Z,84.22
2019-03-08T11:00:54.960Z,84.6
2019-03-08T11:02:04.970Z,83.74
2019-03-08T11:03:14.712Z,83.74
2019-03-08T11:04:24.717Z,84.22
2019-03-08T11:05:34.452Z,84.22
2019-03-08T11:06:44.188Z,84.6
2019-03-08T11:07:54.167Z,84.5
2019-03-08T11:09:04.167Z,85.27
2019-03-08T11:10:14.145Z,84.88
2019-03-08T11:11:24.154Z,84.5
2019-03-08T11:12:34.158Z,85.17
2019-03-08T11:13:46.008Z,85.55
2019-03-08T11:14:55.561Z,85.64
2019-03-08T11:16:06.080Z,85.64
2019-03-08T11:17:16.494Z,85.74
2019-03-08T11:18:26.945Z,85.08
2019-03-08T11:19:37.678Z,84.5
2019-03-08T11:20:49.054Z,84.5
2019-03-08T11:21:59.205Z,84.41
2019-03-08T11:23:08.984Z,84.6
2019-03-08T11:24:18.968Z,85.64
2019-03-08T11:25:37.294Z,86.32
2019-03-08T11:26:47.040Z,86.12
2019-03-08T11:27:56.775Z,86.88
2019-03-08T11:29:06.521Z,87.79
2019-03-08T11:30:16.518Z,88.46
2019-03-08T11:31:27.137Z,89.03
2019-03-08T11:32:37.883Z,89.03
2019-03-08T11:33:49.277Z,89.51
2019-03-08T11:34:59.057Z,90.32
2019-03-08T11:36:08.839Z,92.51
2019-03-08T11:37:18.829Z,96.22
2019-03-08T11:38:30.652Z,99.74
2019-03-08T11:39:40.146Z,99.93
2019-03-08T11:40:50.140Z,99.99
2019-03-08T11:42:00.808Z,99.99
2019-03-08T11:43:10.791Z,99.99
2019-03-08T11:44:20.773Z,99.99
2019-03-08T11:45:30.800Z,99.99
2019-03-08T11:46:40.803Z,99.99
2019-03-08T11:47:50.790Z,99.99
2019-03-08T11:49:00.543Z,99.99
2019-03-08T11:50:10.310Z,99.99
2019-03-08T11:51:19.798Z,99.99
2019-03-08T11:52:29.798Z,99.99
2019-03-08T11:53:39.776Z,99.99
2019-03-08T11:54:58.769Z,99.99
2019-03-08T11:56:09.436Z,99.99
2019-03-08T11:57:19.874Z,99.99
2019-03-08T11:58:29.932Z,99.99
2019-03-08T11:59:40.058Z,99.99
2019-03-08T12:00:50.036Z,99.99
2019-03-08T12:02:01.375Z,99.99
2019-03-08T12:03:11.125Z,99.99
2019-03-08T12:04:20.866Z,99.99
2019-03-08T12:05:30.863Z,99.99
2019-03-08T12:06:40.882Z,99.99
2019-03-08T12:07:50.870Z,99.99
2019-03-08T12:09:00.605Z,99.99
2019-03-08T12:10:10.354Z,99.99
2019-03-08T12:11:19.840Z,99.99
2019-03-08T12:12:29.852Z,99.99
2019-03-08T12:13:39.973Z,99.99
2019-03-08T12:14:49.981Z,99.99
2019-03-08T12:15:59.972Z,99.99
2019-03-08T12:17:09.722Z,99.99
2019-03-08T12:18:19.708Z,99.99
2019-03-08T12:19:29.704Z,99.99
2019-03-08T12:20:39.463Z,99.99
2019-03-08T12:21:49.236Z,99.99
2019-03-08T12:22:59.311Z,99.99
2019-03-08T12:24:09.347Z,99.99
2019-03-08T12:25:19.340Z,99.99
2019-03-08T12:26:29.387Z,99.99
2019-03-08T12:27:38.929Z,99.99
2019-03-08T12:28:48.743Z,99.99
2019-03-08T12:29:58.767Z,99.99
2019-03-08T12:31:09.758Z,99.99
2019-03-08T12:32:19.759Z,99.99
2019-03-08T12:33:31.246Z,99.99
2019-03-08T12:34:41.234Z,99.99
2019-03-08T12:35:50.982Z,99.99
2019-03-08T12:37:00.966Z,99.99
2019-03-08T12:38:10.973Z,99.99
2019-03-08T12:39:20.721Z,99.99
2019-03-08T12:40:30.239Z,99.99
2019-03-08T12:41:40.526Z,99.99
2019-03-08T12:42:50.818Z,99.99
2019-03-08T12:44:08.113Z,99.99
2019-03-08T12:45:18.322Z,99.99
2019-03-08T12:46:28.327Z,99.99
2019-03-08T12:47:38.325Z,99.99
2019-03-08T12:48:50.180Z,99.99
2019-03-08T12:50:00.063Z,99.99
2019-03-08T12:51:10.128Z,99.99
2019-03-08T12:52:19.918Z,99.99
2019-03-08T12:53:29.661Z,99.99
2019-03-08T12:54:39.185Z,99.41
2019-03-08T12:55:49.184Z,99.5
2019-03-08T12:56:59.196Z,97.79
2019-03-08T12:58:09.209Z,98.69
2019-03-08T12:59:19.196Z,98.69
2019-03-08T13:00:29.209Z,98.13
2019-03-08T13:01:39.222Z,96.41
2019-03-08T13:02:48.973Z,94.65
2019-03-08T13:03:58.959Z,93.18
2019-03-08T13:05:08.992Z,93.74
2019-03-08T13:06:19.025Z,94.79
2019-03-08T13:07:30.991Z,95.7
2019-03-08T13:08:41.030Z,96.36
2019-03-08T13:09:50.801Z,96.46
2019-03-08T13:11:00.547Z,95.89
2019-03-08T13:12:10.306Z,96.17
2019-03-08T13:13:20.047Z,96.36
2019-03-08T13:14:30.044Z,94.93
2019-03-08T13:15:40.049Z,93.6
2019-03-08T13:16:49.826Z,94.46
2019-03-08T13:17:59.833Z,94.51
2019-03-08T13:19:09.828Z,93.27
2019-03-08T13:20:19.814Z,92.79
2019-03-08T13:21:29.822Z,92.51
2019-03-08T13:22:39.830Z,92.51
2019-03-08T13:23:49.826Z,90.99
2019-03-08T13:25:00.306Z,91.84
2019-03-08T13:26:10.670Z,92.6
2019-03-08T13:27:21.117Z,91.94
2019-03-08T13:28:31.333Z,91.94
2019-03-08T13:29:41.596Z,92.08
2019-03-08T13:30:52.234Z,92.55
2019-03-08T13:32:02.740Z,93.27
2019-03-08T13:33:12.487Z,92.7
2019-03-08T13:34:22.574Z,93.65
2019-03-08T13:35:32.325Z,92.89
2019-03-08T13:36:42.313Z,93.08
2019-03-08T13:37:52.291Z,94.13
2019-03-08T13:39:02.286Z,94.7
2019-03-08T13:40:12.045Z,94.22
2019-03-08T13:41:22.049Z,96.26
2019-03-08T13:42:32.040Z,96.46
2019-03-08T13:43:42.039Z,95.79
2019-03-08T13:44:52.043Z,95.98
2019-03-08T13:46:01.788Z,97.22
2019-03-08T13:47:11.788Z,96.84
2019-03-08T13:48:21.556Z,96.08
2019-03-08T13:49:31.288Z,95.56
2019-03-08T13:50:41.015Z,95.27
2019-03-08T13:51:51.019Z,96.31
2019-03-08T13:53:01.034Z,96.84
2019-03-08T13:54:10.808Z,96.17
2019-03-08T13:55:20.817Z,96.74
2019-03-08T13:56:30.839Z,97.13
2019-03-08T13:57:40.640Z,96.36
2019-03-08T13:58:50.653Z,96.46
2019-03-08T14:00:00.673Z,96.55
2019-03-08T14:01:10.701Z,96.26
2019-03-08T14:02:20.688Z,96.55
2019-03-08T14:03:30.427Z,95.98
2019-03-08T14:04:40.430Z,96.84
2019-03-08T14:05:49.929Z,96.03
2019-03-08T14:06:59.702Z,95.08
2019-03-08T14:08:09.445Z,94.7
2019-03-08T14:09:19.503Z,93.84
2019-03-08T14:10:29.250Z,92.79
2019-03-08T14:11:38.992Z,92.75
2019-03-08T14:12:48.987Z,92.41
2019-03-08T14:13:58.752Z,93.18
2019-03-08T14:15:08.499Z,90.66
2019-03-08T14:16:18.271Z,91.65
2019-03-08T14:17:28.033Z,91.65
2019-03-08T14:18:37.283Z,90.8
2019-03-08T14:19:47.283Z,91.03
2019-03-08T14:20:57.281Z,86.8
2019-03-08T14:22:07.267Z,87.08
2019-03-08T14:23:17.476Z,89.56
2019-03-08T14:24:27.746Z,88.7
2019-03-08T14:25:38.209Z,84.99
2019-03-08T14:26:48.782Z,86.32
2019-03-08T14:27:59.325Z,81.37
2019-03-08T14:29:09.689Z,84.8
2019-03-08T14:30:21.904Z,83.85
2019-03-08T14:31:35.144Z,84.61
2019-03-08T14:32:48.410Z,85.08
2019-03-08T14:34:00.964Z,85.28
2019-03-08T14:35:17.225Z,84.61
2019-03-08T14:36:29.011Z,84.23
2019-03-08T14:37:45.397Z,84.13
2019-03-08T14:39:04.126Z,83.28
2019-03-08T14:40:22.446Z,81.66
2019-03-08T14:41:33.194Z,82.99
2019-03-08T14:42:44.062Z,82
2019-03-08T14:43:54.978Z,83.04
2019-03-08T14:45:09.530Z,81.81
2019-03-08T14:46:23.136Z,81.14
2019-03-08T14:47:35.938Z,80
2019-03-08T14:48:48.966Z,80.8
2019-03-08T14:50:01.833Z,80.33
2019-03-08T14:51:15.568Z,79.94
2019-03-08T14:52:25.533Z,79.94
2019-03-08T14:53:36.852Z,77.66
2019-03-08T14:54:50.061Z,79.13
2019-03-08T14:56:01.702Z,79.28
2019-03-08T14:57:23.834Z,78.14
2019-03-08T14:58:40.408Z,78.85
2019-03-08T14:59:55.062Z,78.56
2019-03-08T15:01:08.436Z,79.89
2019-03-08T15:02:18.164Z,80.08
2019-03-08T15:03:28.115Z,79.47
2019-03-08T15:04:46.463Z,79.38
2019-03-08T15:05:59.229Z,78.8
2019-03-08T15:07:09.069Z,79.28
2019-03-08T15:08:20.446Z,79.19
2019-03-08T15:09:31.432Z,78.14
2019-03-08T15:10:47.101Z,77.85